Pena Blanca, New Mexico
Current Conditions -  °F | °C
As of 3:53 PM on Thursday 27 Nov 2014 (Local Time) from KSAF Reporting Station
Clear Clear  
Wind Chill: 56°   Ceiling: Unl
Heat Index: 56°   Visibility: 10mi
Dew Point: 20°   Wind: 8mph
Humidity: 25%   Direction: 230°SW
Pressure: 30.34"   Gusts: NA
Location:  35.57°N, 106.34°W
Report Text: KSAF 272253Z 23007KT 10SM CLR 13/M07 A3034 RMK AO2 SLP241 T01331067
Loading
Personal Weather Stations






























Interactive Weather Map New forecast layout! Learn more

10-Day Weather Forecast

Advertisements
Track Severe Weather on mobile